Aérodrome :
LOGIN :

S'inscrire | Disclaimer

   EN    FR    IT 

 










Légende :    VFR   VFR Marginal   IFR   IFR Intensif   IFR Très Intensif
Visi : 
Plafond : 
>= 8 km
>= 3000ft
5 à 8 km
1000 à 3000 ft
1500m à 5 km
500 à 1000 ft
800 à 1500m
200 à 500 ft
< 800m
< 200 ft
Symboles :   Orages  Brouillard  Fortes neiges  Fortes précipitations  Vent > 20 kt
SIGMETs :   Divers  Orages  Givrage  Turbulence  Onde Orograph.  Cendres Volcan.







- Altitude de l'aérodrome : 1300 ft
- Code IATA : LIG
- Voir les cartes d'approche


LFBL - Limoges

DERNIER METAR :
  • 201230Z AUTO 27004KT 220V320 9999 SCT021 BKN041 OVC052 13/10 Q1014 TEMPO SCT020TCU

METARs EXPIRÉS :
  • 201200Z AUTO 25006KT 220V290 9999 SCT018 BKN027 BKN039 13/10 Q1014 TEMPO SCT020TCU
  • 201130Z AUTO 25006KT 210V270 9999 SCT016 SCT026 OVC052 13/10 Q1013 TEMPO SCT020TCU
  • 201100Z AUTO 27004KT 240V310 9999 FEW013 SCT037 OVC048 12/10 Q1013 BECMG SCT015TCU SCT040
  • 201030Z AUTO 27006KT 230V300 9999 BKN015 BKN021 OVC038 12/10 Q1013 BECMG SCT015TCU SCT040
  • 201000Z AUTO 28006KT 9999 FEW011 BKN020 BKN025 12/10 Q1013 BECMG SCT015TCU SCT040

TAF TAF LFBL
Valide du 20 à 12h jusqu'au 21 à 12h UTC


201100Z 2012/2112 30006KT 9999 SCT017 BKN035
PROB30
TEMPO 2012/2019 SCT020TCU
BECMG 2022/2024 VRB02KT 4000 BR BKN005
BECMG 2100/2102 2500 OVC002
TEMPO 2102/2106 0500 FG VV///
BECMG 2106/2108 4000 BR BKN006
BECMG 2109/2111 30007KT BKN022
PROB30
TEMPO 2110/2112 SHRA SCT020TCU
ATIS : +33 5 55 48 40 37
Pas de NOTAMs connus pour ce terrain.



MET'MAP, la Météo Aéronautique d'un coup d'oeil ! - Copyright ORBIFLY Décembre 2007 - Disclaimer

ORBIFLY MET'MAP TEAM :

Programmation & Développement : Alexandra Zaïnal
Conception & Développement : Baudouin d'Aumeries
Co-Programmation & Développement : Marc-Olivier Méhu
Soutien technique & logistique : Manuel Goepfert

Contact : metmap@orbifly.com




SOURCES & CREDITS :

   NOAA